sensor_id;sensor_type;location;lat;lon;timestamp;P1;durP1;ratioP1;P2;durP2;ratioP2
39788;SDS011;25478;42.626;23.320;2022-09-17T00:01:00;8.48;;;3.17;;
39788;SDS011;25478;42.626;23.320;2022-09-17T00:03:28;6.32;;;2.63;;
39788;SDS011;25478;42.626;23.320;2022-09-17T00:06:00;8.00;;;2.38;;
39788;SDS011;25478;42.626;23.320;2022-09-17T00:08:29;5.38;;;2.63;;
39788;SDS011;25478;42.626;23.320;2022-09-17T00:10:55;7.38;;;2.47;;
39788;SDS011;25478;42.626;23.320;2022-09-17T00:13:21;9.27;;;3.20;;
39788;SDS011;25478;42.626;23.320;2022-09-17T00:15:47;7.05;;;2.72;;
39788;SDS011;25478;42.626;23.320;2022-09-17T00:18:13;8.15;;;3.25;;
39788;SDS011;25478;42.626;23.320;2022-09-17T00:20:41;5.65;;;2.50;;
39788;SDS011;25478;42.626;23.320;2022-09-17T00:23:09;10.07;;;2.90;;
39788;SDS011;25478;42.626;23.320;2022-09-17T00:25:40;5.68;;;2.58;;
39788;SDS011;25478;42.626;23.320;2022-09-17T00:28:07;5.55;;;2.75;;
39788;SDS011;25478;42.626;23.320;2022-09-17T00:30:33;8.48;;;2.80;;
39788;SDS011;25478;42.626;23.320;2022-09-17T00:32:58;8.63;;;3.47;;
39788;SDS011;25478;42.626;23.320;2022-09-17T00:35:24;6.68;;;3.15;;
39788;SDS011;25478;42.626;23.320;2022-09-17T00:37:50;6.50;;;2.85;;
39788;SDS011;25478;42.626;23.320;2022-09-17T00:40:16;6.50;;;2.80;;
39788;SDS011;25478;42.626;23.320;2022-09-17T00:42:42;5.53;;;2.50;;
39788;SDS011;25478;42.626;23.320;2022-09-17T00:45:09;7.53;;;2.60;;
39788;SDS011;25478;42.626;23.320;2022-09-17T00:47:44;8.63;;;2.67;;
39788;SDS011;25478;42.626;23.320;2022-09-17T00:50:27;9.30;;;2.90;;
39788;SDS011;25478;42.626;23.320;2022-09-17T00:58:09;6.20;;;2.67;;
39788;SDS011;25478;42.626;23.320;2022-09-17T01:00:36;9.02;;;2.70;;
39788;SDS011;25478;42.626;23.320;2022-09-17T01:03:02;7.63;;;3.10;;
39788;SDS011;25478;42.626;23.320;2022-09-17T01:11:08;7.82;;;3.13;;
39788;SDS011;25478;42.626;23.320;2022-09-17T01:16:40;7.03;;;3.25;;
39788;SDS011;25478;42.626;23.320;2022-09-17T01:27:57;7.45;;;3.05;;
39788;SDS011;25478;42.626;23.320;2022-09-17T01:39:39;9.02;;;3.03;;
39788;SDS011;25478;42.626;23.320;2022-09-17T01:44:30;8.98;;;4.28;;
39788;SDS011;25478;42.626;23.320;2022-09-17T01:49:38;9.60;;;5.05;;
39788;SDS011;25478;42.626;23.320;2022-09-17T01:52:05;11.93;;;5.40;;
39788;SDS011;25478;42.626;23.320;2022-09-17T01:54:38;8.13;;;4.32;;
39788;SDS011;25478;42.626;23.320;2022-09-17T01:57:13;6.85;;;2.92;;
39788;SDS011;25478;42.626;23.320;2022-09-17T01:59:46;10.35;;;2.47;;
39788;SDS011;25478;42.626;23.320;2022-09-17T02:02:26;10.70;;;3.75;;
39788;SDS011;25478;42.626;23.320;2022-09-17T02:05:08;13.70;;;6.00;;
39788;SDS011;25478;42.626;23.320;2022-09-17T02:08:00;13.52;;;7.63;;
39788;SDS011;25478;42.626;23.320;2022-09-17T02:10:31;16.17;;;7.80;;
39788;SDS011;25478;42.626;23.320;2022-09-17T02:13:16;12.38;;;7.90;;
39788;SDS011;25478;42.626;23.320;2022-09-17T02:15:48;13.38;;;8.02;;
39788;SDS011;25478;42.626;23.320;2022-09-17T02:20:58;11.45;;;7.63;;
39788;SDS011;25478;42.626;23.320;2022-09-17T02:23:33;9.85;;;2.70;;
39788;SDS011;25478;42.626;23.320;2022-09-17T02:26:08;12.95;;;2.72;;
39788;SDS011;25478;42.626;23.320;2022-09-17T02:28:49;11.70;;;3.17;;
39788;SDS011;25478;42.626;23.320;2022-09-17T02:31:18;11.45;;;2.97;;
39788;SDS011;25478;42.626;23.320;2022-09-17T02:33:44;12.90;;;2.50;;
39788;SDS011;25478;42.626;23.320;2022-09-17T02:36:13;10.15;;;2.72;;
39788;SDS011;25478;42.626;23.320;2022-09-17T02:38:40;8.77;;;2.45;;
39788;SDS011;25478;42.626;23.320;2022-09-17T02:41:19;9.30;;;2.83;;
39788;SDS011;25478;42.626;23.320;2022-09-17T02:44:09;6.40;;;2.08;;
39788;SDS011;25478;42.626;23.320;2022-09-17T02:55:00;10.30;;;5.38;;
39788;SDS011;25478;42.626;23.320;2022-09-17T02:57:41;10.48;;;5.20;;
39788;SDS011;25478;42.626;23.320;2022-09-17T03:00:19;10.18;;;5.13;;
39788;SDS011;25478;42.626;23.320;2022-09-17T03:02:53;8.15;;;5.25;;
39788;SDS011;25478;42.626;23.320;2022-09-17T03:05:23;9.65;;;5.10;;
39788;SDS011;25478;42.626;23.320;2022-09-17T03:07:50;9.98;;;4.55;;
39788;SDS011;25478;42.626;23.320;2022-09-17T03:10:16;10.00;;;4.32;;
39788;SDS011;25478;42.626;23.320;2022-09-17T03:12:42;11.70;;;5.57;;
39788;SDS011;25478;42.626;23.320;2022-09-17T03:15:08;8.75;;;5.40;;
39788;SDS011;25478;42.626;23.320;2022-09-17T03:17:34;8.10;;;4.50;;
39788;SDS011;25478;42.626;23.320;2022-09-17T03:20:00;9.27;;;6.22;;
39788;SDS011;25478;42.626;23.320;2022-09-17T03:22:26;9.90;;;6.47;;
39788;SDS011;25478;42.626;23.320;2022-09-17T03:24:51;11.23;;;7.63;;
39788;SDS011;25478;42.626;23.320;2022-09-17T03:27:17;11.75;;;6.65;;
39788;SDS011;25478;42.626;23.320;2022-09-17T03:29:42;10.20;;;6.78;;
39788;SDS011;25478;42.626;23.320;2022-09-17T03:32:08;11.63;;;7.00;;
39788;SDS011;25478;42.626;23.320;2022-09-17T03:34:34;9.70;;;6.30;;
39788;SDS011;25478;42.626;23.320;2022-09-17T03:36:59;12.65;;;5.65;;
39788;SDS011;25478;42.626;23.320;2022-09-17T03:39:25;11.48;;;5.00;;
39788;SDS011;25478;42.626;23.320;2022-09-17T03:41:50;8.65;;;3.88;;
39788;SDS011;25478;42.626;23.320;2022-09-17T03:44:16;8.20;;;4.25;;
39788;SDS011;25478;42.626;23.320;2022-09-17T03:46:43;6.40;;;3.63;;
39788;SDS011;25478;42.626;23.320;2022-09-17T03:49:09;12.38;;;4.72;;
39788;SDS011;25478;42.626;23.320;2022-09-17T03:51:35;9.50;;;4.35;;
39788;SDS011;25478;42.626;23.320;2022-09-17T03:54:00;12.00;;;4.68;;
39788;SDS011;25478;42.626;23.320;2022-09-17T03:56:27;6.60;;;3.90;;
39788;SDS011;25478;42.626;23.320;2022-09-17T03:58:56;8.90;;;4.13;;
39788;SDS011;25478;42.626;23.320;2022-09-17T04:01:25;7.55;;;3.40;;
39788;SDS011;25478;42.626;23.320;2022-09-17T04:03:51;8.07;;;3.13;;
39788;SDS011;25478;42.626;23.320;2022-09-17T04:06:17;10.10;;;3.50;;
39788;SDS011;25478;42.626;23.320;2022-09-17T04:08:43;7.00;;;3.08;;
39788;SDS011;25478;42.626;23.320;2022-09-17T04:11:08;8.88;;;3.15;;
39788;SDS011;25478;42.626;23.320;2022-09-17T04:13:34;7.15;;;3.13;;
39788;SDS011;25478;42.626;23.320;2022-09-17T04:16:00;8.18;;;3.10;;
39788;SDS011;25478;42.626;23.320;2022-09-17T04:18:26;9.13;;;3.05;;
39788;SDS011;25478;42.626;23.320;2022-09-17T04:20:51;8.48;;;3.33;;
39788;SDS011;25478;42.626;23.320;2022-09-17T04:23:17;8.20;;;3.00;;
39788;SDS011;25478;42.626;23.320;2022-09-17T04:25:43;8.93;;;3.22;;
39788;SDS011;25478;42.626;23.320;2022-09-17T04:28:09;9.48;;;3.20;;
39788;SDS011;25478;42.626;23.320;2022-09-17T04:30:35;7.53;;;3.60;;
39788;SDS011;25478;42.626;23.320;2022-09-17T04:33:00;7.70;;;3.53;;
39788;SDS011;25478;42.626;23.320;2022-09-17T04:35:26;5.60;;;3.03;;
39788;SDS011;25478;42.626;23.320;2022-09-17T04:37:52;10.18;;;3.70;;
39788;SDS011;25478;42.626;23.320;2022-09-17T04:40:22;8.20;;;3.88;;
39788;SDS011;25478;42.626;23.320;2022-09-17T04:42:55;8.10;;;4.20;;
39788;SDS011;25478;42.626;23.320;2022-09-17T04:45:27;9.02;;;4.60;;
39788;SDS011;25478;42.626;23.320;2022-09-17T04:47:54;9.07;;;4.45;;
39788;SDS011;25478;42.626;23.320;2022-09-17T04:50:20;9.23;;;4.05;;
39788;SDS011;25478;42.626;23.320;2022-09-17T04:52:46;10.85;;;3.72;;
39788;SDS011;25478;42.626;23.320;2022-09-17T04:55:13;7.65;;;3.30;;
39788;SDS011;25478;42.626;23.320;2022-09-17T04:57:46;10.98;;;4.07;;
39788;SDS011;25478;42.626;23.320;2022-09-17T05:00:13;13.23;;;4.45;;
39788;SDS011;25478;42.626;23.320;2022-09-17T05:02:39;9.95;;;3.90;;
39788;SDS011;25478;42.626;23.320;2022-09-17T05:05:07;10.65;;;4.53;;
39788;SDS011;25478;42.626;23.320;2022-09-17T05:07:33;11.25;;;5.28;;
39788;SDS011;25478;42.626;23.320;2022-09-17T05:09:58;12.48;;;6.95;;
39788;SDS011;25478;42.626;23.320;2022-09-17T05:12:24;11.20;;;6.15;;
39788;SDS011;25478;42.626;23.320;2022-09-17T05:14:49;11.23;;;6.40;;
39788;SDS011;25478;42.626;23.320;2022-09-17T05:17:15;11.20;;;5.75;;
39788;SDS011;25478;42.626;23.320;2022-09-17T05:19:40;12.30;;;6.20;;
39788;SDS011;25478;42.626;23.320;2022-09-17T05:22:06;14.07;;;6.25;;
39788;SDS011;25478;42.626;23.320;2022-09-17T05:24:31;8.68;;;5.78;;
39788;SDS011;25478;42.626;23.320;2022-09-17T05:26:57;12.00;;;5.45;;
39788;SDS011;25478;42.626;23.320;2022-09-17T05:29:23;10.40;;;5.43;;
39788;SDS011;25478;42.626;23.320;2022-09-17T05:31:48;15.88;;;10.30;;
39788;SDS011;25478;42.626;23.320;2022-09-17T05:34:14;29.75;;;21.75;;
39788;SDS011;25478;42.626;23.320;2022-09-17T05:36:39;19.77;;;15.18;;
39788;SDS011;25478;42.626;23.320;2022-09-17T05:39:05;17.20;;;12.77;;
39788;SDS011;25478;42.626;23.320;2022-09-17T05:41:30;13.38;;;8.70;;
39788;SDS011;25478;42.626;23.320;2022-09-17T05:43:56;9.93;;;4.25;;
39788;SDS011;25478;42.626;23.320;2022-09-17T05:46:21;3.63;;;1.60;;
39788;SDS011;25478;42.626;23.320;2022-09-17T05:48:47;6.47;;;2.22;;
39788;SDS011;25478;42.626;23.320;2022-09-17T05:51:12;6.88;;;2.08;;
39788;SDS011;25478;42.626;23.320;2022-09-17T05:53:38;5.32;;;2.00;;
39788;SDS011;25478;42.626;23.320;2022-09-17T05:56:03;3.90;;;1.70;;
39788;SDS011;25478;42.626;23.320;2022-09-17T05:58:29;5.35;;;1.70;;
39788;SDS011;25478;42.626;23.320;2022-09-17T06:00:59;3.33;;;1.45;;
39788;SDS011;25478;42.626;23.320;2022-09-17T06:03:25;5.40;;;1.42;;
39788;SDS011;25478;42.626;23.320;2022-09-17T06:05:52;2.75;;;1.15;;
39788;SDS011;25478;42.626;23.320;2022-09-17T06:08:20;3.92;;;1.17;;
39788;SDS011;25478;42.626;23.320;2022-09-17T06:10:46;3.25;;;1.23;;
39788;SDS011;25478;42.626;23.320;2022-09-17T06:13:12;4.57;;;1.60;;
39788;SDS011;25478;42.626;23.320;2022-09-17T06:15:37;5.15;;;1.20;;
39788;SDS011;25478;42.626;23.320;2022-09-17T06:18:03;5.57;;;1.25;;
39788;SDS011;25478;42.626;23.320;2022-09-17T06:20:29;4.03;;;1.27;;
39788;SDS011;25478;42.626;23.320;2022-09-17T06:22:55;2.08;;;0.88;;
39788;SDS011;25478;42.626;23.320;2022-09-17T06:25:21;3.28;;;1.20;;
39788;SDS011;25478;42.626;23.320;2022-09-17T06:27:47;3.40;;;1.02;;
39788;SDS011;25478;42.626;23.320;2022-09-17T06:30:13;3.10;;;1.10;;
39788;SDS011;25478;42.626;23.320;2022-09-17T06:32:39;8.20;;;3.78;;
39788;SDS011;25478;42.626;23.320;2022-09-17T06:35:04;10.38;;;4.75;;
39788;SDS011;25478;42.626;23.320;2022-09-17T06:37:31;11.15;;;5.20;;
39788;SDS011;25478;42.626;23.320;2022-09-17T06:39:57;9.38;;;5.65;;
39788;SDS011;25478;42.626;23.320;2022-09-17T06:42:24;10.80;;;6.50;;
39788;SDS011;25478;42.626;23.320;2022-09-17T06:44:50;9.85;;;6.57;;
39788;SDS011;25478;42.626;23.320;2022-09-17T06:47:16;14.40;;;6.88;;
39788;SDS011;25478;42.626;23.320;2022-09-17T06:49:42;17.83;;;7.40;;
39788;SDS011;25478;42.626;23.320;2022-09-17T06:52:07;13.85;;;6.70;;
39788;SDS011;25478;42.626;23.320;2022-09-17T06:54:33;10.65;;;6.55;;
39788;SDS011;25478;42.626;23.320;2022-09-17T06:56:58;15.00;;;7.38;;
39788;SDS011;25478;42.626;23.320;2022-09-17T06:59:24;12.60;;;6.00;;
39788;SDS011;25478;42.626;23.320;2022-09-17T07:01:50;12.00;;;6.30;;
39788;SDS011;25478;42.626;23.320;2022-09-17T07:04:16;11.63;;;5.88;;
39788;SDS011;25478;42.626;23.320;2022-09-17T07:06:43;13.02;;;6.22;;
39788;SDS011;25478;42.626;23.320;2022-09-17T07:09:09;14.00;;;5.85;;
39788;SDS011;25478;42.626;23.320;2022-09-17T07:11:36;11.52;;;6.28;;
39788;SDS011;25478;42.626;23.320;2022-09-17T07:14:04;11.73;;;5.50;;
39788;SDS011;25478;42.626;23.320;2022-09-17T07:16:31;8.50;;;5.32;;
39788;SDS011;25478;42.626;23.320;2022-09-17T07:19:02;10.60;;;5.70;;
39788;SDS011;25478;42.626;23.320;2022-09-17T07:21:28;10.75;;;5.45;;
39788;SDS011;25478;42.626;23.320;2022-09-17T07:23:54;10.13;;;5.53;;
39788;SDS011;25478;42.626;23.320;2022-09-17T07:26:19;9.82;;;5.22;;
39788;SDS011;25478;42.626;23.320;2022-09-17T07:28:45;12.40;;;5.10;;
39788;SDS011;25478;42.626;23.320;2022-09-17T07:31:11;8.68;;;3.92;;
39788;SDS011;25478;42.626;23.320;2022-09-17T07:33:37;9.05;;;4.25;;
39788;SDS011;25478;42.626;23.320;2022-09-17T07:36:04;6.40;;;3.13;;
39788;SDS011;25478;42.626;23.320;2022-09-17T07:38:32;7.25;;;2.80;;
39788;SDS011;25478;42.626;23.320;2022-09-17T07:40:58;4.38;;;2.22;;
39788;SDS011;25478;42.626;23.320;2022-09-17T07:43:26;6.43;;;2.35;;
39788;SDS011;25478;42.626;23.320;2022-09-17T07:45:53;6.80;;;2.58;;
39788;SDS011;25478;42.626;23.320;2022-09-17T07:48:19;5.80;;;2.28;;
39788;SDS011;25478;42.626;23.320;2022-09-17T07:50:45;7.65;;;2.80;;
39788;SDS011;25478;42.626;23.320;2022-09-17T07:53:11;7.72;;;3.15;;
39788;SDS011;25478;42.626;23.320;2022-09-17T07:55:37;7.93;;;2.88;;
39788;SDS011;25478;42.626;23.320;2022-09-17T07:58:03;12.93;;;4.65;;
39788;SDS011;25478;42.626;23.320;2022-09-17T08:00:28;9.82;;;4.60;;
39788;SDS011;25478;42.626;23.320;2022-09-17T08:02:54;11.32;;;5.35;;
39788;SDS011;25478;42.626;23.320;2022-09-17T08:05:21;11.13;;;5.00;;
39788;SDS011;25478;42.626;23.320;2022-09-17T08:07:51;9.73;;;5.43;;
39788;SDS011;25478;42.626;23.320;2022-09-17T08:10:18;15.07;;;5.90;;
39788;SDS011;25478;42.626;23.320;2022-09-17T08:12:46;8.38;;;4.65;;
39788;SDS011;25478;42.626;23.320;2022-09-17T08:15:18;9.70;;;4.57;;
39788;SDS011;25478;42.626;23.320;2022-09-17T08:17:44;10.07;;;5.38;;
39788;SDS011;25478;42.626;23.320;2022-09-17T08:20:11;12.65;;;4.72;;
39788;SDS011;25478;42.626;23.320;2022-09-17T08:22:38;10.05;;;4.65;;
39788;SDS011;25478;42.626;23.320;2022-09-17T08:25:04;12.60;;;4.43;;
39788;SDS011;25478;42.626;23.320;2022-09-17T08:27:31;11.52;;;5.20;;
39788;SDS011;25478;42.626;23.320;2022-09-17T08:29:57;12.45;;;3.90;;
39788;SDS011;25478;42.626;23.320;2022-09-17T08:32:23;9.43;;;4.28;;
39788;SDS011;25478;42.626;23.320;2022-09-17T08:34:49;7.05;;;3.15;;
39788;SDS011;25478;42.626;23.320;2022-09-17T08:37:15;9.18;;;3.50;;
39788;SDS011;25478;42.626;23.320;2022-09-17T08:39:40;10.52;;;3.60;;
39788;SDS011;25478;42.626;23.320;2022-09-17T08:44:54;6.65;;;2.63;;
39788;SDS011;25478;42.626;23.320;2022-09-17T08:47:25;10.82;;;3.65;;
39788;SDS011;25478;42.626;23.320;2022-09-17T08:49:58;9.32;;;3.50;;
39788;SDS011;25478;42.626;23.320;2022-09-17T09:00:43;8.48;;;2.83;;
39788;SDS011;25478;42.626;23.320;2022-09-17T09:05:47;6.50;;;3.25;;
39788;SDS011;25478;42.626;23.320;2022-09-17T09:11:04;7.25;;;3.40;;
39788;SDS011;25478;42.626;23.320;2022-09-17T09:13:45;8.98;;;3.33;;
39788;SDS011;25478;42.626;23.320;2022-09-17T09:18:47;9.73;;;4.05;;
39788;SDS011;25478;42.626;23.320;2022-09-17T09:21:36;9.30;;;4.50;;
39788;SDS011;25478;42.626;23.320;2022-09-17T09:34:52;11.25;;;5.03;;
39788;SDS011;25478;42.626;23.320;2022-09-17T09:37:24;7.22;;;3.78;;
39788;SDS011;25478;42.626;23.320;2022-09-17T09:39:54;9.43;;;3.80;;
39788;SDS011;25478;42.626;23.320;2022-09-17T09:42:31;9.95;;;4.15;;
39788;SDS011;25478;42.626;23.320;2022-09-17T09:45:11;9.32;;;4.80;;
39788;SDS011;25478;42.626;23.320;2022-09-17T09:53:11;10.88;;;5.72;;
39788;SDS011;25478;42.626;23.320;2022-09-17T10:00:49;17.15;;;8.52;;
39788;SDS011;25478;42.626;23.320;2022-09-17T10:03:22;17.73;;;7.45;;
39788;SDS011;25478;42.626;23.320;2022-09-17T10:05:52;13.23;;;6.78;;
39788;SDS011;25478;42.626;23.320;2022-09-17T10:08:30;16.75;;;7.65;;
39788;SDS011;25478;42.626;23.320;2022-09-17T10:11:00;14.95;;;7.60;;
39788;SDS011;25478;42.626;23.320;2022-09-17T10:13:32;13.27;;;6.68;;
39788;SDS011;25478;42.626;23.320;2022-09-17T10:18:45;12.98;;;5.30;;
39788;SDS011;25478;42.626;23.320;2022-09-17T10:23:44;9.45;;;4.80;;
39788;SDS011;25478;42.626;23.320;2022-09-17T10:26:22;7.82;;;4.15;;
39788;SDS011;25478;42.626;23.320;2022-09-17T10:28:50;10.00;;;3.30;;
39788;SDS011;25478;42.626;23.320;2022-09-17T10:31:19;7.13;;;3.35;;
39788;SDS011;25478;42.626;23.320;2022-09-17T10:33:51;6.57;;;2.78;;
39788;SDS011;25478;42.626;23.320;2022-09-17T10:36:41;3.85;;;1.58;;
39788;SDS011;25478;42.626;23.320;2022-09-17T10:44:21;2.30;;;0.70;;
39788;SDS011;25478;42.626;23.320;2022-09-17T10:46:48;2.35;;;0.80;;
39788;SDS011;25478;42.626;23.320;2022-09-17T10:52:03;1.25;;;0.55;;
39788;SDS011;25478;42.626;23.320;2022-09-17T10:54:46;3.05;;;0.80;;
39788;SDS011;25478;42.626;23.320;2022-09-17T10:57:16;0.70;;;0.40;;
39788;SDS011;25478;42.626;23.320;2022-09-17T11:11:09;3.92;;;0.82;;
39788;SDS011;25478;42.626;23.320;2022-09-17T11:13:44;2.85;;;0.93;;
39788;SDS011;25478;42.626;23.320;2022-09-17T11:19:22;9.27;;;5.00;;
39788;SDS011;25478;42.626;23.320;2022-09-17T11:25:08;11.85;;;5.80;;
39788;SDS011;25478;42.626;23.320;2022-09-17T11:27:58;10.88;;;6.10;;
39788;SDS011;25478;42.626;23.320;2022-09-17T11:35:58;7.22;;;4.20;;
39788;SDS011;25478;42.626;23.320;2022-09-17T11:38:42;9.30;;;4.40;;
39788;SDS011;25478;42.626;23.320;2022-09-17T11:41:22;6.72;;;4.63;;
39788;SDS011;25478;42.626;23.320;2022-09-17T11:46:28;6.78;;;4.00;;
39788;SDS011;25478;42.626;23.320;2022-09-17T11:49:08;10.18;;;4.40;;
39788;SDS011;25478;42.626;23.320;2022-09-17T11:51:47;9.38;;;4.20;;
39788;SDS011;25478;42.626;23.320;2022-09-17T11:54:46;7.45;;;4.00;;
39788;SDS011;25478;42.626;23.320;2022-09-17T11:57:28;3.33;;;1.73;;
39788;SDS011;25478;42.626;23.320;2022-09-17T12:00:15;3.58;;;0.90;;
39788;SDS011;25478;42.626;23.320;2022-09-17T12:07:58;2.08;;;0.60;;
39788;SDS011;25478;42.626;23.320;2022-09-17T12:15:47;2.15;;;0.75;;
39788;SDS011;25478;42.626;23.320;2022-09-17T12:21:05;2.70;;;0.70;;
39788;SDS011;25478;42.626;23.320;2022-09-17T12:28:49;2.60;;;0.90;;
39788;SDS011;25478;42.626;23.320;2022-09-17T12:37:23;1.48;;;0.57;;
39788;SDS011;25478;42.626;23.320;2022-09-17T12:40:04;2.15;;;0.40;;
39788;SDS011;25478;42.626;23.320;2022-09-17T12:42:42;0.98;;;0.40;;
39788;SDS011;25478;42.626;23.320;2022-09-17T12:45:32;0.63;;;0.50;;
39788;SDS011;25478;42.626;23.320;2022-09-17T12:54:06;1.67;;;0.88;;
39788;SDS011;25478;42.626;23.320;2022-09-17T13:21:52;3.13;;;0.95;;
39788;SDS011;25478;42.626;23.320;2022-09-17T13:24:25;2.13;;;0.70;;
39788;SDS011;25478;42.626;23.320;2022-09-17T13:26:55;2.40;;;0.70;;
39788;SDS011;25478;42.626;23.320;2022-09-17T13:30:08;3.72;;;0.82;;
39788;SDS011;25478;42.626;23.320;2022-09-17T13:37:38;3.58;;;0.70;;
39788;SDS011;25478;42.626;23.320;2022-09-17T13:40:26;1.50;;;0.80;;
39788;SDS011;25478;42.626;23.320;2022-09-17T13:45:22;1.45;;;0.60;;
39788;SDS011;25478;42.626;23.320;2022-09-17T13:50:37;1.77;;;0.85;;
39788;SDS011;25478;42.626;23.320;2022-09-17T13:55:38;2.20;;;1.00;;
39788;SDS011;25478;42.626;23.320;2022-09-17T14:00:47;1.25;;;0.60;;
39788;SDS011;25478;42.626;23.320;2022-09-17T14:05:55;1.63;;;0.70;;
39788;SDS011;25478;42.626;23.320;2022-09-17T14:08:26;2.72;;;0.50;;
39788;SDS011;25478;42.626;23.320;2022-09-17T14:13:57;2.60;;;0.60;;
39788;SDS011;25478;42.626;23.320;2022-09-17T14:16:59;2.20;;;0.47;;
39788;SDS011;25478;42.626;23.320;2022-09-17T14:24:24;2.10;;;0.95;;
39788;SDS011;25478;42.626;23.320;2022-09-17T14:33:12;2.55;;;0.90;;
39788;SDS011;25478;42.626;23.320;2022-09-17T14:37:51;3.58;;;1.75;;
39788;SDS011;25478;42.626;23.320;2022-09-17T14:40:21;2.90;;;1.67;;
39788;SDS011;25478;42.626;23.320;2022-09-17T14:42:48;4.47;;;1.77;;
39788;SDS011;25478;42.626;23.320;2022-09-17T14:45:27;2.97;;;1.80;;
39788;SDS011;25478;42.626;23.320;2022-09-17T14:53:42;5.00;;;2.20;;
39788;SDS011;25478;42.626;23.320;2022-09-17T14:56:12;5.43;;;1.73;;
39788;SDS011;25478;42.626;23.320;2022-09-17T14:58:41;5.05;;;1.77;;
39788;SDS011;25478;42.626;23.320;2022-09-17T15:01:24;5.68;;;1.85;;
39788;SDS011;25478;42.626;23.320;2022-09-17T15:06:39;8.55;;;2.63;;
39788;SDS011;25478;42.626;23.320;2022-09-17T15:09:12;5.80;;;2.45;;
39788;SDS011;25478;42.626;23.320;2022-09-17T15:11:40;5.88;;;2.78;;
39788;SDS011;25478;42.626;23.320;2022-09-17T15:14:10;5.63;;;3.40;;
39788;SDS011;25478;42.626;23.320;2022-09-17T15:17:16;7.00;;;3.38;;
39788;SDS011;25478;42.626;23.320;2022-09-17T15:19:59;6.72;;;3.00;;
39788;SDS011;25478;42.626;23.320;2022-09-17T15:25:04;4.78;;;2.40;;
39788;SDS011;25478;42.626;23.320;2022-09-17T15:30:18;4.82;;;2.20;;
39788;SDS011;25478;42.626;23.320;2022-09-17T15:35:16;5.45;;;2.30;;
39788;SDS011;25478;42.626;23.320;2022-09-17T15:38:01;4.43;;;2.28;;
39788;SDS011;25478;42.626;23.320;2022-09-17T15:40:43;4.13;;;1.85;;
39788;SDS011;25478;42.626;23.320;2022-09-17T15:43:14;4.68;;;2.22;;
39788;SDS011;25478;42.626;23.320;2022-09-17T15:45:41;2.70;;;1.15;;
39788;SDS011;25478;42.626;23.320;2022-09-17T15:50:58;3.85;;;1.00;;
39788;SDS011;25478;42.626;23.320;2022-09-17T15:53:29;2.63;;;1.05;;
39788;SDS011;25478;42.626;23.320;2022-09-17T15:58:35;1.20;;;0.70;;
39788;SDS011;25478;42.626;23.320;2022-09-17T16:08:42;1.25;;;0.70;;
39788;SDS011;25478;42.626;23.320;2022-09-17T16:11:29;3.00;;;0.93;;
39788;SDS011;25478;42.626;23.320;2022-09-17T16:13:56;4.00;;;1.25;;
39788;SDS011;25478;42.626;23.320;2022-09-17T16:16:25;3.78;;;0.82;;
39788;SDS011;25478;42.626;23.320;2022-09-17T16:18:57;3.20;;;0.90;;
39788;SDS011;25478;42.626;23.320;2022-09-17T16:21:23;3.40;;;0.85;;
39788;SDS011;25478;42.626;23.320;2022-09-17T16:23:49;3.47;;;1.10;;
39788;SDS011;25478;42.626;23.320;2022-09-17T16:26:19;2.65;;;1.20;;
39788;SDS011;25478;42.626;23.320;2022-09-17T16:29:13;4.88;;;1.95;;
39788;SDS011;25478;42.626;23.320;2022-09-17T16:31:40;3.70;;;1.98;;
39788;SDS011;25478;42.626;23.320;2022-09-17T16:34:06;5.32;;;1.98;;
39788;SDS011;25478;42.626;23.320;2022-09-17T16:36:31;6.65;;;2.55;;
39788;SDS011;25478;42.626;23.320;2022-09-17T16:38:57;7.63;;;2.10;;
39788;SDS011;25478;42.626;23.320;2022-09-17T16:41:23;4.13;;;1.85;;
39788;SDS011;25478;42.626;23.320;2022-09-17T16:43:48;4.88;;;2.00;;
39788;SDS011;25478;42.626;23.320;2022-09-17T16:46:14;4.05;;;1.70;;
39788;SDS011;25478;42.626;23.320;2022-09-17T16:48:40;3.78;;;1.73;;
39788;SDS011;25478;42.626;23.320;2022-09-17T16:51:11;7.53;;;2.05;;
39788;SDS011;25478;42.626;23.320;2022-09-17T16:53:38;4.97;;;1.80;;
39788;SDS011;25478;42.626;23.320;2022-09-17T16:56:07;4.63;;;2.10;;
39788;SDS011;25478;42.626;23.320;2022-09-17T16:58:34;6.57;;;2.83;;
39788;SDS011;25478;42.626;23.320;2022-09-17T17:01:06;4.05;;;2.53;;
39788;SDS011;25478;42.626;23.320;2022-09-17T17:03:33;5.85;;;2.30;;
39788;SDS011;25478;42.626;23.320;2022-09-17T17:05:58;2.53;;;1.90;;
39788;SDS011;25478;42.626;23.320;2022-09-17T17:08:24;4.68;;;2.38;;
39788;SDS011;25478;42.626;23.320;2022-09-17T17:10:50;6.60;;;2.33;;
39788;SDS011;25478;42.626;23.320;2022-09-17T17:13:15;4.75;;;2.60;;
39788;SDS011;25478;42.626;23.320;2022-09-17T17:15:41;4.40;;;2.40;;
39788;SDS011;25478;42.626;23.320;2022-09-17T17:18:06;4.55;;;2.72;;
39788;SDS011;25478;42.626;23.320;2022-09-17T17:20:35;5.28;;;2.53;;
39788;SDS011;25478;42.626;23.320;2022-09-17T17:23:01;4.03;;;2.60;;
39788;SDS011;25478;42.626;23.320;2022-09-17T17:25:26;4.88;;;3.25;;
39788;SDS011;25478;42.626;23.320;2022-09-17T17:27:54;5.05;;;2.78;;
39788;SDS011;25478;42.626;23.320;2022-09-17T17:30:19;5.75;;;2.40;;
39788;SDS011;25478;42.626;23.320;2022-09-17T17:32:49;3.50;;;2.20;;
39788;SDS011;25478;42.626;23.320;2022-09-17T17:35:16;5.55;;;2.63;;
39788;SDS011;25478;42.626;23.320;2022-09-17T17:37:45;3.58;;;2.42;;
39788;SDS011;25478;42.626;23.320;2022-09-17T17:40:12;5.68;;;2.42;;
39788;SDS011;25478;42.626;23.320;2022-09-17T17:42:37;4.78;;;2.65;;
39788;SDS011;25478;42.626;23.320;2022-09-17T17:45:07;3.22;;;2.17;;
39788;SDS011;25478;42.626;23.320;2022-09-17T17:47:34;4.55;;;2.20;;
39788;SDS011;25478;42.626;23.320;2022-09-17T17:50:00;2.85;;;1.95;;
39788;SDS011;25478;42.626;23.320;2022-09-17T17:52:26;3.78;;;1.90;;
39788;SDS011;25478;42.626;23.320;2022-09-17T17:54:52;4.38;;;1.67;;
39788;SDS011;25478;42.626;23.320;2022-09-17T17:57:17;3.63;;;1.80;;
39788;SDS011;25478;42.626;23.320;2022-09-17T17:59:43;2.97;;;1.60;;
39788;SDS011;25478;42.626;23.320;2022-09-17T18:02:09;4.18;;;1.55;;
39788;SDS011;25478;42.626;23.320;2022-09-17T18:04:35;4.15;;;1.42;;
39788;SDS011;25478;42.626;23.320;2022-09-17T18:07:00;1.70;;;0.98;;
39788;SDS011;25478;42.626;23.320;2022-09-17T18:09:26;1.95;;;1.20;;
39788;SDS011;25478;42.626;23.320;2022-09-17T18:11:51;2.65;;;1.25;;
39788;SDS011;25478;42.626;23.320;2022-09-17T18:14:18;4.97;;;1.40;;
39788;SDS011;25478;42.626;23.320;2022-09-17T18:16:43;2.22;;;1.08;;
39788;SDS011;25478;42.626;23.320;2022-09-17T18:19:09;3.50;;;1.10;;
39788;SDS011;25478;42.626;23.320;2022-09-17T18:21:35;3.28;;;1.38;;
39788;SDS011;25478;42.626;23.320;2022-09-17T18:24:01;3.22;;;1.27;;
39788;SDS011;25478;42.626;23.320;2022-09-17T18:26:27;2.75;;;1.15;;
39788;SDS011;25478;42.626;23.320;2022-09-17T18:28:54;3.00;;;1.48;;
39788;SDS011;25478;42.626;23.320;2022-09-17T18:31:21;3.50;;;1.30;;
39788;SDS011;25478;42.626;23.320;2022-09-17T18:36:31;2.97;;;1.30;;
39788;SDS011;25478;42.626;23.320;2022-09-17T18:38:59;2.97;;;1.08;;
39788;SDS011;25478;42.626;23.320;2022-09-17T18:41:27;3.08;;;1.50;;
39788;SDS011;25478;42.626;23.320;2022-09-17T18:43:54;3.17;;;1.85;;
39788;SDS011;25478;42.626;23.320;2022-09-17T18:46:21;3.08;;;1.80;;
39788;SDS011;25478;42.626;23.320;2022-09-17T18:48:50;4.95;;;2.15;;
39788;SDS011;25478;42.626;23.320;2022-09-17T18:51:20;4.57;;;2.40;;
39788;SDS011;25478;42.626;23.320;2022-09-17T18:53:46;4.65;;;2.10;;